sim
Sign-in with your pilot id or email,
or register
Callsign
Passwort

Schedule Details

Flight Number: EWG1977 (2)
Departure: Hamburg Airport (EDDH) at 15:55
Arrival: Munich Airport (EDDM) at 17:20
Route: Eurowings Passenger Schedule. Enter filed route here before submitting Pirep.

Weather Information
Getting current METAR information for EDDH 242120Z 11005KT 070V130 CAVOK 13/07 Q1000 NOSIG
Getting current METAR information for EDDM 242120Z 16004KT 130V190 9999 -RA SCT040 16/14 Q1003 BECMG 25010KT

Schedule Frequency

Route Map